sensor_id;sensor_type;location;lat;lon;timestamp;pressure;altitude;pressure_sealevel;temperature;humidity
84607;BME280;74838;47.984;7.842;2024-02-14T06:15:15;99043.16;;;11.47;56.84
84607;BME280;74838;47.984;7.842;2024-02-14T06:17:45;99039.94;;;11.45;58.51
84607;BME280;74838;47.984;7.842;2024-02-14T06:20:12;99030.69;;;11.36;57.47
84607;BME280;74838;47.984;7.842;2024-02-14T06:22:43;99030.88;;;11.46;56.64
84607;BME280;74838;47.984;7.842;2024-02-14T06:25:12;99036.53;;;11.50;55.94
84607;BME280;74838;47.984;7.842;2024-02-14T06:27:38;99030.09;;;11.46;56.98
84607;BME280;74838;47.984;7.842;2024-02-14T06:30:12;99041.84;;;11.50;56.58
84607;BME280;74838;47.984;7.842;2024-02-14T06:32:41;99045.91;;;11.52;56.56
84607;BME280;74838;47.984;7.842;2024-02-14T06:35:07;99045.38;;;11.55;55.51
84607;BME280;74838;47.984;7.842;2024-02-14T06:37:34;99036.53;;;11.50;56.98
84607;BME280;74838;47.984;7.842;2024-02-14T06:40:01;99044.34;;;11.56;56.21
84607;BME280;74838;47.984;7.842;2024-02-14T06:42:28;99051.78;;;11.54;56.01
84607;BME280;74838;47.984;7.842;2024-02-14T06:44:54;99065.25;;;11.64;56.16
84607;BME280;74838;47.984;7.842;2024-02-14T06:47:21;99072.72;;;11.67;55.08
84607;BME280;74838;47.984;7.842;2024-02-14T06:49:49;99072.81;;;11.72;56.43
84607;BME280;74838;47.984;7.842;2024-02-14T06:52:18;99060.41;;;11.61;55.89
84607;BME280;74838;47.984;7.842;2024-02-14T06:54:50;99063.53;;;11.58;56.07
84607;BME280;74838;47.984;7.842;2024-02-14T06:57:17;99068.56;;;11.71;55.41
84607;BME280;74838;47.984;7.842;2024-02-14T06:59:46;99072.81;;;11.72;55.15
84607;BME280;74838;47.984;7.842;2024-02-14T07:02:13;99069.91;;;11.73;55.60
84607;BME280;74838;47.984;7.842;2024-02-14T07:04:40;99056.63;;;11.57;56.19
84607;BME280;74838;47.984;7.842;2024-02-14T07:07:08;99080.09;;;11.76;55.83
84607;BME280;74838;47.984;7.842;2024-02-14T07:09:37;99077.66;;;11.75;55.61
84607;BME280;74838;47.984;7.842;2024-02-14T07:12:05;99078.81;;;11.79;56.00
84607;BME280;74838;47.984;7.842;2024-02-14T07:14:31;99046.53;;;11.59;55.51
84607;BME280;74838;47.984;7.842;2024-02-14T07:16:58;99093.81;;;11.85;56.79
84607;BME280;74838;47.984;7.842;2024-02-14T07:19:25;99079.84;;;11.78;56.46
84607;BME280;74838;47.984;7.842;2024-02-14T07:21:51;99103.97;;;11.88;56.69
84607;BME280;74838;47.984;7.842;2024-02-14T07:24:22;99103.34;;;11.81;56.64
84607;BME280;74838;47.984;7.842;2024-02-14T07:26:48;99102.09;;;11.88;55.19
84607;BME280;74838;47.984;7.842;2024-02-14T07:29:17;99096.22;;;11.86;55.48
84607;BME280;74838;47.984;7.842;2024-02-14T07:31:53;99071.63;;;11.63;56.31
84607;BME280;74838;47.984;7.842;2024-02-14T07:34:20;99103.97;;;11.88;55.69
84607;BME280;74838;47.984;7.842;2024-02-14T07:36:49;99100.25;;;11.89;55.37
84607;BME280;74838;47.984;7.842;2024-02-14T07:39:16;99112.44;;;11.85;56.15
84607;BME280;74838;47.984;7.842;2024-02-14T07:41:44;99094.09;;;11.72;56.52
84607;BME280;74838;47.984;7.842;2024-02-14T07:44:11;99109.69;;;11.80;56.18
84607;BME280;74838;47.984;7.842;2024-02-14T07:46:38;99090.41;;;11.73;55.83
84607;BME280;74838;47.984;7.842;2024-02-14T07:49:07;99084.91;;;11.63;56.42
84607;BME280;74838;47.984;7.842;2024-02-14T07:51:35;99108.41;;;11.82;57.19
84607;BME280;74838;47.984;7.842;2024-02-14T07:54:03;99073.06;;;11.54;56.11
84607;BME280;74838;47.984;7.842;2024-02-14T07:56:33;99100.91;;;11.63;56.70
84607;BME280;74838;47.984;7.842;2024-02-14T07:59:01;99121.88;;;11.76;55.05
84607;BME280;74838;47.984;7.842;2024-02-14T08:01:42;99117.94;;;11.62;55.42
84607;BME280;74838;47.984;7.842;2024-02-14T08:04:14;99124.00;;;11.74;55.91
84607;BME280;74838;47.984;7.842;2024-02-14T08:06:44;99080.53;;;11.41;57.18
84607;BME280;74838;47.984;7.842;2024-02-14T08:09:10;99134.78;;;11.67;56.81
84607;BME280;74838;47.984;7.842;2024-02-14T08:11:40;99139.56;;;11.65;56.55
84607;BME280;74838;47.984;7.842;2024-02-14T08:14:10;99120.09;;;11.65;56.96
84607;BME280;74838;47.984;7.842;2024-02-14T08:16:37;99137.69;;;11.66;56.77
84607;BME280;74838;47.984;7.842;2024-02-14T08:19:06;99136.38;;;11.68;57.83
84607;BME280;74838;47.984;7.842;2024-02-14T08:21:33;99145.44;;;11.67;57.46
84607;BME280;74838;47.984;7.842;2024-02-14T08:24:07;99142.63;;;11.74;57.81
84607;BME280;74838;47.984;7.842;2024-02-14T08:26:36;99153.66;;;11.66;57.32
84607;BME280;74838;47.984;7.842;2024-02-14T08:29:12;99153.75;;;11.71;57.79
84607;BME280;74838;47.984;7.842;2024-02-14T08:31:50;99151.56;;;11.68;57.24
84607;BME280;74838;47.984;7.842;2024-02-14T08:34:26;99155.75;;;11.64;58.31
84607;BME280;74838;47.984;7.842;2024-02-14T08:36:58;99163.66;;;11.59;58.18
84607;BME280;74838;47.984;7.842;2024-02-14T08:39:25;99162.38;;;11.78;62.86
84607;BME280;74838;47.984;7.842;2024-02-14T08:41:55;99168.03;;;11.81;61.52
84607;BME280;74838;47.984;7.842;2024-02-14T08:44:23;99167.41;;;11.91;59.03
84607;BME280;74838;47.984;7.842;2024-02-14T08:46:55;99117.94;;;11.62;57.86
84607;BME280;74838;47.984;7.842;2024-02-14T08:49:24;99173.22;;;11.88;57.55
84607;BME280;74838;47.984;7.842;2024-02-14T08:51:54;99179.34;;;11.88;58.79
84607;BME280;74838;47.984;7.842;2024-02-14T08:54:23;99184.50;;;11.95;58.39
84607;BME280;74838;47.984;7.842;2024-02-14T08:56:50;99163.91;;;11.90;60.17
84607;BME280;74838;47.984;7.842;2024-02-14T09:02:01;99181.28;;;11.93;59.04
84607;BME280;74838;47.984;7.842;2024-02-14T09:04:29;99188.72;;;11.91;58.87
84607;BME280;74838;47.984;7.842;2024-02-14T09:06:55;99160.19;;;11.75;58.11
84607;BME280;74838;47.984;7.842;2024-02-14T09:09:22;99177.31;;;11.95;58.87
84607;BME280;74838;47.984;7.842;2024-02-14T09:11:56;99171.28;;;12.00;58.79
84607;BME280;74838;47.984;7.842;2024-02-14T09:14:23;99167.06;;;12.03;59.03
84607;BME280;74838;47.984;7.842;2024-02-14T09:16:51;99172.00;;;12.11;58.56
84607;BME280;74838;47.984;7.842;2024-02-14T09:19:30;99172.50;;;12.25;64.56
84607;BME280;74838;47.984;7.842;2024-02-14T09:21:57;99138.84;;;12.02;59.22
84607;BME280;74838;47.984;7.842;2024-02-14T09:24:29;99167.63;;;12.22;59.75
84607;BME280;74838;47.984;7.842;2024-02-14T09:26:55;99153.84;;;12.08;58.94
84607;BME280;74838;47.984;7.842;2024-02-14T09:29:25;99173.44;;;12.19;58.26
84607;BME280;74838;47.984;7.842;2024-02-14T09:31:58;99181.75;;;12.22;58.33
84607;BME280;74838;47.984;7.842;2024-02-14T09:34:25;99169.34;;;12.28;59.45
84607;BME280;74838;47.984;7.842;2024-02-14T09:36:53;99166.75;;;12.16;57.83
84607;BME280;74838;47.984;7.842;2024-02-14T09:39:21;99175.94;;;12.25;58.45
84607;BME280;74838;47.984;7.842;2024-02-14T09:41:54;99168.84;;;12.31;57.48
84607;BME280;74838;47.984;7.842;2024-02-14T09:44:24;99146.16;;;12.28;57.93
84607;BME280;74838;47.984;7.842;2024-02-14T09:46:57;99168.81;;;12.47;59.33
84607;BME280;74838;47.984;7.842;2024-02-14T09:49:38;99158.00;;;12.53;58.46
84607;BME280;74838;47.984;7.842;2024-02-14T09:52:08;99160.47;;;12.60;58.57
84607;BME280;74838;47.984;7.842;2024-02-14T09:54:38;99161.03;;;12.62;59.49
84607;BME280;74838;47.984;7.842;2024-02-14T09:57:05;99171.84;;;12.72;59.39
84607;BME280;74838;47.984;7.842;2024-02-14T09:59:35;99170.84;;;12.78;58.53
84607;BME280;74838;47.984;7.842;2024-02-14T10:02:03;99151.00;;;12.69;60.00
84607;BME280;74838;47.984;7.842;2024-02-14T10:04:30;99171.31;;;12.91;60.43
84607;BME280;74838;47.984;7.842;2024-02-14T10:06:56;99149.84;;;12.81;61.30
84607;BME280;74838;47.984;7.842;2024-02-14T10:09:41;99149.72;;;12.92;62.28
84607;BME280;74838;47.984;7.842;2024-02-14T10:12:08;99169.94;;;13.10;62.68
84607;BME280;74838;47.984;7.842;2024-02-14T10:14:35;99169.22;;;13.14;61.98
84607;BME280;74838;47.984;7.842;2024-02-14T10:17:06;99135.91;;;12.95;62.83
84607;BME280;74838;47.984;7.842;2024-02-14T10:19:38;99164.13;;;13.13;64.83
84607;BME280;74838;47.984;7.842;2024-02-14T10:22:14;99145.63;;;13.06;64.97
84607;BME280;74838;47.984;7.842;2024-02-14T10:24:46;99173.47;;;13.36;64.18
84607;BME280;74838;47.984;7.842;2024-02-14T10:27:13;99165.16;;;13.33;64.38
84607;BME280;74838;47.984;7.842;2024-02-14T10:29:41;99180.28;;;13.49;64.50
84607;BME280;74838;47.984;7.842;2024-02-14T10:32:09;99165.81;;;13.45;64.56
84607;BME280;74838;47.984;7.842;2024-02-14T10:34:37;99155.34;;;13.38;64.58
84607;BME280;74838;47.984;7.842;2024-02-14T10:37:05;99148.94;;;13.39;64.72
84607;BME280;74838;47.984;7.842;2024-02-14T10:39:35;99174.97;;;13.54;65.41
84607;BME280;74838;47.984;7.842;2024-02-14T10:42:04;99166.44;;;13.52;66.10
84607;BME280;74838;47.984;7.842;2024-02-14T10:44:34;99148.78;;;13.51;65.87
84607;BME280;74838;47.984;7.842;2024-02-14T10:47:10;99176.78;;;13.69;66.14
84607;BME280;74838;47.984;7.842;2024-02-14T10:49:46;99173.03;;;13.70;66.43
84607;BME280;74838;47.984;7.842;2024-02-14T10:52:15;99179.50;;;13.74;66.72
84607;BME280;74838;47.984;7.842;2024-02-14T10:54:43;99171.00;;;13.82;67.00
84607;BME280;74838;47.984;7.842;2024-02-14T10:57:21;99150.69;;;13.81;66.47
84607;BME280;74838;47.984;7.842;2024-02-14T10:59:54;99161.50;;;13.96;66.08
84607;BME280;74838;47.984;7.842;2024-02-14T11:02:22;99166.66;;;14.03;66.21
84607;BME280;74838;47.984;7.842;2024-02-14T11:04:52;99159.41;;;13.98;65.33
84607;BME280;74838;47.984;7.842;2024-02-14T11:07:20;99162.44;;;14.07;65.58
84607;BME280;74838;47.984;7.842;2024-02-14T11:09:48;99160.31;;;14.09;66.15
84607;BME280;74838;47.984;7.842;2024-02-14T11:12:24;99154.72;;;14.10;65.44
84607;BME280;74838;47.984;7.842;2024-02-14T11:14:51;99147.53;;;14.15;65.47
84607;BME280;74838;47.984;7.842;2024-02-14T11:17:19;99150.00;;;14.22;65.58
84607;BME280;74838;47.984;7.842;2024-02-14T11:19:52;99132.38;;;13.95;65.31
84607;BME280;74838;47.984;7.842;2024-02-14T11:22:19;99157.69;;;14.13;65.93
84607;BME280;74838;47.984;7.842;2024-02-14T11:24:47;99151.31;;;14.24;67.07
84607;BME280;74838;47.984;7.842;2024-02-14T11:27:14;99165.84;;;14.38;65.93
84607;BME280;74838;47.984;7.842;2024-02-14T11:29:52;99164.63;;;14.51;66.49
84607;BME280;74838;47.984;7.842;2024-02-14T11:32:21;99159.22;;;14.41;65.80
84607;BME280;74838;47.984;7.842;2024-02-14T11:34:53;99165.66;;;14.45;65.81
84607;BME280;74838;47.984;7.842;2024-02-14T11:37:27;99173.63;;;14.40;65.75
84607;BME280;74838;47.984;7.842;2024-02-14T11:39:54;99181.91;;;14.38;65.87
84607;BME280;74838;47.984;7.842;2024-02-14T11:42:21;99184.84;;;14.37;68.42
84607;BME280;74838;47.984;7.842;2024-02-14T11:44:48;99180.81;;;14.34;66.48
84607;BME280;74838;47.984;7.842;2024-02-14T11:47:16;99177.59;;;14.32;67.20
84607;BME280;74838;47.984;7.842;2024-02-14T11:49:43;99173.03;;;14.33;66.90
84607;BME280;74838;47.984;7.842;2024-02-14T11:52:11;99174.66;;;14.34;67.02
84607;BME280;74838;47.984;7.842;2024-02-14T11:54:46;99169.09;;;14.40;66.16
84607;BME280;74838;47.984;7.842;2024-02-14T11:57:16;99172.69;;;14.55;65.69
84607;BME280;74838;47.984;7.842;2024-02-14T11:59:48;99165.19;;;14.57;65.34
84607;BME280;74838;47.984;7.842;2024-02-14T12:02:19;99163.44;;;14.78;65.22
84607;BME280;74838;47.984;7.842;2024-02-14T12:04:49;99161.59;;;14.83;65.00
84607;BME280;74838;47.984;7.842;2024-02-14T12:07:22;99149.53;;;14.86;65.31
84607;BME280;74838;47.984;7.842;2024-02-14T12:09:49;99151.94;;;14.82;65.21
84607;BME280;74838;47.984;7.842;2024-02-14T12:12:19;99153.19;;;14.65;66.32
84607;BME280;74838;47.984;7.842;2024-02-14T12:14:51;99150.78;;;14.63;66.06
84607;BME280;74838;47.984;7.842;2024-02-14T12:17:19;99135.53;;;14.59;66.17
84607;BME280;74838;47.984;7.842;2024-02-14T12:19:47;99125.53;;;14.45;66.64
84607;BME280;74838;47.984;7.842;2024-02-14T12:22:16;99122.41;;;14.57;66.49
84607;BME280;74838;47.984;7.842;2024-02-14T12:24:45;99134.25;;;14.71;67.25
84607;BME280;74838;47.984;7.842;2024-02-14T12:27:12;99123.53;;;14.71;66.58
84607;BME280;74838;47.984;7.842;2024-02-14T12:29:39;99123.31;;;14.78;66.76
84607;BME280;74838;47.984;7.842;2024-02-14T12:32:06;99124.34;;;14.77;67.06
84607;BME280;74838;47.984;7.842;2024-02-14T12:34:34;99131.94;;;14.94;66.50
84607;BME280;74838;47.984;7.842;2024-02-14T12:37:04;99124.72;;;14.95;66.51
84607;BME280;74838;47.984;7.842;2024-02-14T12:39:31;99128.97;;;14.91;66.28
84607;BME280;74838;47.984;7.842;2024-02-14T12:41:58;99117.16;;;14.87;66.59
84607;BME280;74838;47.984;7.842;2024-02-14T12:44:27;99123.66;;;14.96;67.12
84607;BME280;74838;47.984;7.842;2024-02-14T12:46:56;99130.84;;;14.95;66.97
84607;BME280;74838;47.984;7.842;2024-02-14T12:49:25;99123.09;;;14.94;67.50
84607;BME280;74838;47.984;7.842;2024-02-14T12:51:52;99116.63;;;14.85;67.64
84607;BME280;74838;47.984;7.842;2024-02-14T12:54:20;99112.31;;;14.74;67.84
84607;BME280;74838;47.984;7.842;2024-02-14T12:56:47;99124.03;;;14.68;68.32
84607;BME280;74838;47.984;7.842;2024-02-14T12:59:17;99114.44;;;14.72;68.10
84607;BME280;74838;47.984;7.842;2024-02-14T13:01:46;99103.16;;;14.65;67.93
84607;BME280;74838;47.984;7.842;2024-02-14T13:04:13;99116.84;;;14.74;68.48
84607;BME280;74838;47.984;7.842;2024-02-14T13:06:41;99112.34;;;14.79;68.55
84607;BME280;74838;47.984;7.842;2024-02-14T13:09:12;99104.81;;;14.76;68.45
84607;BME280;74838;47.984;7.842;2024-02-14T13:11:40;99112.88;;;14.81;68.66
84607;BME280;74838;47.984;7.842;2024-02-14T13:14:10;99087.41;;;14.74;69.06
84607;BME280;74838;47.984;7.842;2024-02-14T13:16:36;99100.50;;;14.70;68.89
84607;BME280;74838;47.984;7.842;2024-02-14T13:19:04;99099.72;;;14.75;69.45
84607;BME280;74838;47.984;7.842;2024-02-14T13:21:30;99101.34;;;14.71;69.20
84607;BME280;74838;47.984;7.842;2024-02-14T13:23:59;99101.06;;;14.77;69.07
84607;BME280;74838;47.984;7.842;2024-02-14T13:26:27;99107.78;;;14.80;69.43
84607;BME280;74838;47.984;7.842;2024-02-14T13:28:53;99096.25;;;14.74;69.36
84607;BME280;74838;47.984;7.842;2024-02-14T13:31:23;99101.28;;;14.61;69.65
84607;BME280;74838;47.984;7.842;2024-02-14T13:33:50;99084.91;;;14.52;70.06
84607;BME280;74838;47.984;7.842;2024-02-14T13:36:19;99099.44;;;14.66;70.24
84607;BME280;74838;47.984;7.842;2024-02-14T13:38:49;99086.03;;;14.61;70.36
84607;BME280;74838;47.984;7.842;2024-02-14T13:41:16;99081.53;;;14.72;70.13
84607;BME280;74838;47.984;7.842;2024-02-14T13:43:44;99095.72;;;14.72;70.17
84607;BME280;74838;47.984;7.842;2024-02-14T13:46:10;99090.34;;;14.67;70.64
84607;BME280;74838;47.984;7.842;2024-02-14T13:48:39;99089.00;;;14.70;70.86
84607;BME280;74838;47.984;7.842;2024-02-14T13:51:08;99091.91;;;14.63;70.91
84607;BME280;74838;47.984;7.842;2024-02-14T13:53:35;99086.31;;;14.65;71.16
84607;BME280;74838;47.984;7.842;2024-02-14T13:56:02;99093.47;;;14.54;71.34
84607;BME280;74838;47.984;7.842;2024-02-14T13:58:31;99095.59;;;14.48;71.40
84607;BME280;74838;47.984;7.842;2024-02-14T14:00:59;99075.19;;;14.37;71.56
84607;BME280;74838;47.984;7.842;2024-02-14T14:03:26;99083.28;;;14.47;71.38
84607;BME280;74838;47.984;7.842;2024-02-14T14:05:53;99076.63;;;14.49;71.36
84607;BME280;74838;47.984;7.842;2024-02-14T14:08:22;99070.44;;;14.49;71.02
84607;BME280;74838;47.984;7.842;2024-02-14T14:10:49;99065.34;;;14.42;71.41
84607;BME280;74838;47.984;7.842;2024-02-14T14:13:18;99068.25;;;14.36;71.49
84607;BME280;74838;47.984;7.842;2024-02-14T14:15:44;99070.41;;;14.39;71.27
84607;BME280;74838;47.984;7.842;2024-02-14T14:18:13;99074.69;;;14.40;71.46
84607;BME280;74838;47.984;7.842;2024-02-14T14:20:41;99061.28;;;14.35;71.49
84607;BME280;74838;47.984;7.842;2024-02-14T14:23:10;99063.41;;;14.33;71.57
84607;BME280;74838;47.984;7.842;2024-02-14T14:25:38;99077.63;;;14.43;71.51
84607;BME280;74838;47.984;7.842;2024-02-14T14:28:05;99083.53;;;14.40;71.25
84607;BME280;74838;47.984;7.842;2024-02-14T14:30:32;99081.72;;;14.51;71.18
84607;BME280;74838;47.984;7.842;2024-02-14T14:32:59;99095.59;;;14.48;71.44
84607;BME280;74838;47.984;7.842;2024-02-14T14:35:27;99089.16;;;14.49;71.58
84607;BME280;74838;47.984;7.842;2024-02-14T14:37:54;99072.28;;;14.43;71.78
84607;BME280;74838;47.984;7.842;2024-02-14T14:40:21;99061.13;;;14.56;71.38
84607;BME280;74838;47.984;7.842;2024-02-14T14:42:50;99062.97;;;14.51;71.44
84607;BME280;74838;47.984;7.842;2024-02-14T14:45:18;99041.56;;;14.46;71.68
84607;BME280;74838;47.984;7.842;2024-02-14T14:47:45;99058.19;;;14.57;71.28
84607;BME280;74838;47.984;7.842;2024-02-14T14:50:11;99053.38;;;14.54;71.62
84607;BME280;74838;47.984;7.842;2024-02-14T14:52:42;99053.63;;;14.58;71.20
84607;BME280;74838;47.984;7.842;2024-02-14T14:55:09;99061.41;;;14.59;71.11
84607;BME280;74838;47.984;7.842;2024-02-14T14:57:38;99069.94;;;14.56;71.64
84607;BME280;74838;47.984;7.842;2024-02-14T15:00:07;99071.53;;;14.52;71.20
84607;BME280;74838;47.984;7.842;2024-02-14T15:02:38;99071.28;;;14.54;71.25
84607;BME280;74838;47.984;7.842;2024-02-14T15:05:06;99069.66;;;14.53;70.30
84607;BME280;74838;47.984;7.842;2024-02-14T15:07:33;99056.56;;;14.51;70.81
84607;BME280;74838;47.984;7.842;2024-02-14T15:10:01;99058.69;;;14.50;70.63
84607;BME280;74838;47.984;7.842;2024-02-14T15:12:27;99049.88;;;14.54;70.53
84607;BME280;74838;47.984;7.842;2024-02-14T15:14:54;99043.72;;;14.53;70.84
84607;BME280;74838;47.984;7.842;2024-02-14T15:17:21;99053.63;;;14.58;70.74
84607;BME280;74838;47.984;7.842;2024-02-14T15:19:47;99055.25;;;14.59;70.70
84607;BME280;74838;47.984;7.842;2024-02-14T15:22:14;99054.97;;;14.55;70.68
84607;BME280;74838;47.984;7.842;2024-02-14T15:24:41;99055.78;;;14.56;71.17
84607;BME280;74838;47.984;7.842;2024-02-14T15:27:13;99051.19;;;14.47;71.36
84607;BME280;74838;47.984;7.842;2024-02-14T15:29:46;99050.09;;;14.43;71.53
84607;BME280;74838;47.984;7.842;2024-02-14T15:32:30;99057.06;;;14.44;71.44
84607;BME280;74838;47.984;7.842;2024-02-14T15:35:15;99058.13;;;14.43;70.93
84607;BME280;74838;47.984;7.842;2024-02-14T15:37:41;99057.06;;;14.44;70.95
84607;BME280;74838;47.984;7.842;2024-02-14T15:40:12;99054.38;;;14.39;71.14
84607;BME280;74838;47.984;7.842;2024-02-14T15:42:40;99065.84;;;14.39;71.82
84607;BME280;74838;47.984;7.842;2024-02-14T15:45:12;99060.22;;;14.36;71.26
84607;BME280;74838;47.984;7.842;2024-02-14T15:47:44;99061.28;;;14.35;72.00
84607;BME280;74838;47.984;7.842;2024-02-14T15:50:12;99068.75;;;14.33;71.83
84607;BME280;74838;47.984;7.842;2024-02-14T15:52:39;99070.63;;;14.32;71.69
84607;BME280;74838;47.984;7.842;2024-02-14T15:55:06;99075.69;;;14.29;72.10
84607;BME280;74838;47.984;7.842;2024-02-14T15:57:34;99069.25;;;14.25;71.87
84607;BME280;74838;47.984;7.842;2024-02-14T16:00:03;99055.31;;;14.18;72.19
84607;BME280;74838;47.984;7.842;2024-02-14T16:02:34;99076.22;;;14.26;71.60
84607;BME280;74838;47.984;7.842;2024-02-14T16:05:03;99075.69;;;14.29;71.74
84607;BME280;74838;47.984;7.842;2024-02-14T16:07:32;99081.56;;;14.26;72.33
84607;BME280;74838;47.984;7.842;2024-02-14T16:09:59;99076.22;;;14.26;72.07
84607;BME280;74838;47.984;7.842;2024-02-14T16:12:27;99074.59;;;14.25;72.05
84607;BME280;74838;47.984;7.842;2024-02-14T16:14:56;99075.41;;;14.25;72.76
84607;BME280;74838;47.984;7.842;2024-02-14T16:17:24;99064.81;;;14.40;72.04
84607;BME280;74838;47.984;7.842;2024-02-14T16:19:51;99037.72;;;14.27;72.31
84607;BME280;74838;47.984;7.842;2024-02-14T16:22:21;99060.75;;;14.33;71.56
84607;BME280;74838;47.984;7.842;2024-02-14T16:24:49;99062.03;;;14.25;71.99
84607;BME280;74838;47.984;7.842;2024-02-14T16:27:19;99055.84;;;14.20;71.91
84607;BME280;74838;47.984;7.842;2024-02-14T16:29:46;99059.59;;;14.19;72.22
84607;BME280;74838;47.984;7.842;2024-02-14T16:32:13;99057.94;;;14.13;72.61
84607;BME280;74838;47.984;7.842;2024-02-14T16:34:41;99058.22;;;14.11;72.61
84607;BME280;74838;47.984;7.842;2024-02-14T16:37:08;99064.63;;;14.10;72.20
84607;BME280;74838;47.984;7.842;2024-02-14T16:39:42;99073.72;;;14.14;71.71
84607;BME280;74838;47.984;7.842;2024-02-14T16:42:08;99070.75;;;14.11;72.06
84607;BME280;74838;47.984;7.842;2024-02-14T16:44:38;99069.19;;;14.10;72.12
84607;BME280;74838;47.984;7.842;2024-02-14T16:47:05;99080.91;;;14.09;72.18
84607;BME280;74838;47.984;7.842;2024-02-14T16:49:33;99084.63;;;14.08;71.79
84607;BME280;74838;47.984;7.842;2024-02-14T16:52:01;99058.81;;;13.87;72.35
84607;BME280;74838;47.984;7.842;2024-02-14T16:54:28;99069.84;;;13.96;72.06
84607;BME280;74838;47.984;7.842;2024-02-14T16:56:57;99084.34;;;14.05;72.76
84607;BME280;74838;47.984;7.842;2024-02-14T16:59:30;99077.41;;;14.04;72.95
84607;BME280;74838;47.984;7.842;2024-02-14T17:01:59;99075.28;;;14.06;71.65
84607;BME280;74838;47.984;7.842;2024-02-14T17:04:26;99076.63;;;14.03;72.05
84607;BME280;74838;47.984;7.842;2024-02-14T17:06:55;99077.63;;;14.02;71.57
84607;BME280;74838;47.984;7.842;2024-02-14T17:09:23;99060.72;;;13.92;72.18
84607;BME280;74838;47.984;7.842;2024-02-14T17:11:52;99083.56;;;14.04;71.59
84607;BME280;74838;47.984;7.842;2024-02-14T17:14:22;99080.88;;;14.04;72.07
84607;BME280;74838;47.984;7.842;2024-02-14T17:16:49;99062.59;;;13.91;72.44
84607;BME280;74838;47.984;7.842;2024-02-14T17:19:20;99078.69;;;14.01;72.95
84607;BME280;74838;47.984;7.842;2024-02-14T17:21:47;99092.03;;;14.01;73.56
84607;BME280;74838;47.984;7.842;2024-02-14T17:24:16;99084.81;;;13.97;73.51
84607;BME280;74838;47.984;7.842;2024-02-14T17:26:44;99086.16;;;13.99;73.04
84607;BME280;74838;47.984;7.842;2024-02-14T17:29:11;99083.69;;;13.93;72.22
84607;BME280;74838;47.984;7.842;2024-02-14T17:31:40;99079.09;;;13.83;71.96
84607;BME280;74838;47.984;7.842;2024-02-14T17:34:07;99097.59;;;13.90;72.07
84607;BME280;74838;47.984;7.842;2024-02-14T17:36:34;99095.19;;;13.88;71.75
84607;BME280;74838;47.984;7.842;2024-02-14T17:39:01;99083.03;;;13.76;72.17
84607;BME280;74838;47.984;7.842;2024-02-14T17:41:30;99089.25;;;13.81;72.27
84607;BME280;74838;47.984;7.842;2024-02-14T17:44:05;99094.06;;;13.84;71.91
84607;BME280;74838;47.984;7.842;2024-02-14T17:46:32;99082.19;;;13.70;72.14
84607;BME280;74838;47.984;7.842;2024-02-14T17:48:59;99081.69;;;13.73;71.89
84607;BME280;74838;47.984;7.842;2024-02-14T17:51:30;99076.25;;;13.64;72.47
84607;BME280;74838;47.984;7.842;2024-02-14T17:53:57;99090.75;;;13.72;72.59
84607;BME280;74838;47.984;7.842;2024-02-14T17:56:24;99103.59;;;13.75;72.16
84607;BME280;74838;47.984;7.842;2024-02-14T17:58:50;99096.09;;;13.72;72.83
84607;BME280;74838;47.984;7.842;2024-02-14T18:01:21;99100.06;;;13.65;72.55
84607;BME280;74838;47.984;7.842;2024-02-14T18:03:48;99090.69;;;13.63;73.10
84607;BME280;74838;47.984;7.842;2024-02-14T18:06:17;99086.94;;;13.64;72.69
84607;BME280;74838;47.984;7.842;2024-02-14T18:08:44;99093.09;;;13.64;72.58
84607;BME280;74838;47.984;7.842;2024-02-14T18:11:10;99095.75;;;13.64;72.39
84607;BME280;74838;47.984;7.842;2024-02-14T18:13:38;99094.66;;;13.60;73.13
84607;BME280;74838;47.984;7.842;2024-02-14T18:16:05;99094.16;;;13.63;72.55
84607;BME280;74838;47.984;7.842;2024-02-14T18:18:35;99089.88;;;13.62;73.23
84607;BME280;74838;47.984;7.842;2024-02-14T18:21:05;99094.41;;;13.62;72.93
84607;BME280;74838;47.984;7.842;2024-02-14T18:23:32;99084.22;;;13.59;72.62
84607;BME280;74838;47.984;7.842;2024-02-14T18:26:02;99093.38;;;13.63;72.53
84607;BME280;74838;47.984;7.842;2024-02-14T18:28:28;99096.03;;;13.63;72.50
84607;BME280;74838;47.984;7.842;2024-02-14T18:30:56;99094.41;;;13.62;72.36
84607;BME280;74838;47.984;7.842;2024-02-14T18:33:25;99089.88;;;13.62;72.53
84607;BME280;74838;47.984;7.842;2024-02-14T18:35:55;99088.47;;;13.55;72.95
84607;BME280;74838;47.984;7.842;2024-02-14T18:38:24;99094.63;;;13.55;73.33
84607;BME280;74838;47.984;7.842;2024-02-14T18:40:58;99094.63;;;13.55;74.73
84607;BME280;74838;47.984;7.842;2024-02-14T18:43:26;99099.66;;;13.52;75.30
84607;BME280;74838;47.984;7.842;2024-02-14T18:45:55;99088.19;;;13.51;73.85
84607;BME280;74838;47.984;7.842;2024-02-14T18:48:24;99086.00;;;13.48;76.68
84607;BME280;74838;47.984;7.842;2024-02-14T18:50:54;99086.25;;;13.47;75.50
84607;BME280;74838;47.984;7.842;2024-02-14T18:53:23;99096.41;;;13.45;75.37
84607;BME280;74838;47.984;7.842;2024-02-14T18:55:50;99074.38;;;13.33;74.76
84607;BME280;74838;47.984;7.842;2024-02-14T18:58:17;99089.38;;;13.39;74.85
84607;BME280;74838;47.984;7.842;2024-02-14T19:00:43;99076.81;;;13.34;74.61
84607;BME280;74838;47.984;7.842;2024-02-14T19:03:10;99070.09;;;13.32;75.03
84607;BME280;74838;47.984;7.842;2024-02-14T19:05:39;99079.69;;;13.28;74.78
84607;BME280;74838;47.984;7.842;2024-02-14T19:08:07;99077.50;;;13.25;74.86
84607;BME280;74838;47.984;7.842;2024-02-14T19:10:34;99084.16;;;13.23;75.49
84607;BME280;74838;47.984;7.842;2024-02-14T19:13:04;99076.91;;;13.18;75.44
84607;BME280;74838;47.984;7.842;2024-02-14T19:15:32;99076.59;;;13.15;76.23
84607;BME280;74838;47.984;7.842;2024-02-14T19:17:59;99065.03;;;13.04;76.67
84607;BME280;74838;47.984;7.842;2024-02-14T19:20:26;99078.41;;;13.09;78.02
84607;BME280;74838;47.984;7.842;2024-02-14T19:22:55;99071.41;;;13.03;77.31
84607;BME280;74838;47.984;7.842;2024-02-14T19:25:24;99060.13;;;12.96;76.88